createdAt,value
2023-01-23T00:04:05.662Z,12.90
2023-01-23T00:10:13.455Z,11.20
2023-01-23T00:18:19.442Z,14.70
2023-01-23T00:20:47.114Z,17.10
2023-01-23T00:28:33.361Z,13.10
2023-01-23T00:31:03.835Z,18.70
2023-01-23T00:34:35.914Z,13.50
2023-01-23T00:40:09.502Z,16.80
2023-01-23T00:42:09.551Z,16.80
2023-01-23T00:45:41.911Z,11.40
2023-01-23T00:48:11.319Z,13.70
2023-01-23T00:52:12.799Z,14.80
2023-01-23T00:54:12.474Z,12.80
2023-01-23T00:58:40.900Z,14.40
2023-01-23T01:01:40.096Z,15.50
2023-01-23T01:02:40.029Z,17.50
2023-01-23T01:03:40.051Z,14.50
2023-01-23T01:06:54.875Z,12.80
2023-01-23T01:08:23.043Z,16.50
2023-01-23T01:10:22.590Z,14.90
2023-01-23T01:13:22.766Z,16.20
2023-01-23T01:15:23.470Z,14.00
2023-01-23T01:16:53.837Z,12.80
2023-01-23T01:18:22.656Z,14.30
2023-01-23T01:26:25.766Z,11.50
2023-01-23T01:31:31.341Z,14.70
2023-01-23T01:32:59.999Z,16.70
2023-01-23T01:34:30.238Z,12.70
2023-01-23T01:39:11.462Z,15.50
2023-01-23T01:42:45.908Z,14.60
2023-01-23T01:50:20.189Z,24.10
2023-01-23T01:55:59.735Z,14.70
2023-01-23T01:57:29.632Z,16.40
2023-01-23T02:01:09.118Z,12.30
2023-01-23T02:05:39.004Z,15.10
2023-01-23T02:10:08.404Z,12.50
2023-01-23T02:12:37.818Z,12.00
2023-01-23T02:14:38.187Z,17.30
2023-01-23T02:16:37.447Z,14.60
2023-01-23T02:19:11.008Z,13.70
2023-01-23T02:24:22.680Z,13.30
2023-01-23T02:27:53.730Z,16.30
2023-01-23T02:32:05.650Z,13.40
2023-01-23T02:34:04.762Z,14.40
2023-01-23T02:36:05.730Z,12.60
2023-01-23T02:38:34.229Z,13.10
2023-01-23T02:42:35.615Z,12.50
2023-01-23T02:46:36.922Z,13.20
2023-01-23T02:52:28.888Z,14.70
2023-01-23T03:01:14.936Z,14.80
2023-01-23T03:03:18.036Z,11.90
2023-01-23T03:05:16.746Z,13.50
2023-01-23T03:07:15.554Z,13.70
2023-01-23T03:10:18.498Z,14.20
2023-01-23T03:12:49.617Z,16.00
2023-01-23T03:16:13.643Z,16.50
2023-01-23T03:18:13.995Z,12.90
2023-01-23T03:20:48.005Z,11.80
2023-01-23T03:23:18.838Z,10.70
2023-01-23T03:25:18.362Z,13.30
2023-01-23T03:27:50.238Z,14.80
2023-01-23T03:29:20.793Z,15.30
2023-01-23T03:32:53.068Z,13.80
2023-01-23T03:34:52.820Z,13.50
2023-01-23T03:36:51.384Z,14.60
2023-01-23T03:41:29.107Z,11.70
2023-01-23T03:45:11.875Z,15.10
2023-01-23T03:46:11.793Z,12.70
2023-01-23T03:47:11.811Z,14.70
2023-01-23T03:49:11.981Z,12.60
2023-01-23T03:52:15.542Z,14.80
2023-01-23T03:56:21.288Z,14.40
2023-01-23T03:57:51.335Z,13.50
2023-01-23T03:59:21.155Z,13.20
2023-01-23T04:00:51.582Z,14.10
2023-01-23T04:02:22.584Z,14.20
2023-01-23T04:06:02.282Z,13.00
2023-01-23T04:07:31.324Z,17.00
2023-01-23T04:09:01.436Z,16.60
2023-01-23T04:14:34.018Z,13.50
2023-01-23T04:17:05.590Z,14.50
2023-01-23T04:19:37.140Z,16.30
2023-01-23T04:21:07.255Z,12.90
2023-01-23T04:22:37.352Z,13.40
2023-01-23T04:24:50.066Z,13.50
2023-01-23T04:26:52.113Z,21.40
2023-01-23T04:29:54.837Z,15.20
2023-01-23T04:31:23.433Z,14.50
2023-01-23T04:32:53.400Z,13.60
2023-01-23T04:34:35.004Z,15.40
2023-01-23T04:36:35.396Z,12.30
2023-01-23T04:40:06.742Z,14.40
2023-01-23T04:43:10.267Z,15.90
2023-01-23T04:49:14.791Z,12.70
2023-01-23T04:50:45.731Z,15.00
2023-01-23T04:52:15.850Z,14.00
2023-01-23T04:56:16.982Z,11.30
2023-01-23T05:02:32.816Z,17.20
2023-01-23T05:06:36.030Z,14.70
2023-01-23T05:08:06.116Z,13.70
2023-01-23T05:10:37.671Z,15.90
2023-01-23T05:17:51.860Z,15.70
2023-01-23T05:19:21.989Z,15.20
2023-01-23T05:20:52.060Z,13.40
2023-01-23T05:22:57.645Z,17.60
2023-01-23T05:26:26.373Z,13.30
2023-01-23T05:27:55.631Z,14.20
2023-01-23T05:30:28.030Z,17.30
2023-01-23T05:31:58.072Z,14.80
2023-01-23T05:35:56.835Z,12.60
2023-01-23T05:43:11.399Z,14.80
2023-01-23T05:46:40.045Z,12.70
2023-01-23T05:55:48.391Z,13.50
2023-01-23T05:57:19.354Z,11.70
2023-01-23T05:59:19.068Z,18.40
2023-01-23T06:01:56.183Z,15.30
2023-01-23T06:03:55.833Z,12.80
2023-01-23T06:06:26.542Z,13.80
2023-01-23T06:13:33.367Z,14.90
2023-01-23T06:20:02.500Z,13.10
2023-01-23T06:24:36.923Z,15.20
2023-01-23T06:27:09.271Z,13.80
2023-01-23T06:31:42.103Z,11.40
2023-01-23T06:37:48.066Z,14.40
2023-01-23T06:40:49.528Z,15.30
2023-01-23T06:45:12.695Z,13.30
2023-01-23T06:47:39.991Z,18.20
2023-01-23T06:51:41.671Z,13.10
2023-01-23T06:58:25.938Z,13.00
2023-01-23T06:59:55.715Z,14.00
2023-01-23T07:01:25.553Z,13.40
2023-01-23T07:06:34.299Z,15.10
2023-01-23T07:08:04.980Z,12.80
2023-01-23T07:11:35.355Z,16.40
2023-01-23T07:17:10.793Z,15.90
2023-01-23T07:19:43.219Z,17.40
2023-01-23T07:23:16.175Z,16.40
2023-01-23T07:24:46.270Z,15.70
2023-01-23T07:27:46.843Z,15.90
2023-01-23T07:29:15.945Z,18.40
2023-01-23T07:38:55.046Z,18.70
2023-01-23T07:42:57.019Z,17.00
2023-01-23T07:50:46.051Z,23.10
2023-01-23T07:53:16.906Z,20.20
2023-01-23T08:00:55.773Z,20.80
2023-01-23T08:03:58.344Z,31.50
2023-01-23T08:09:03.801Z,19.10
2023-01-23T08:11:37.880Z,16.80
2023-01-23T08:16:45.107Z,17.90
2023-01-23T08:18:13.874Z,17.40
2023-01-23T08:19:44.509Z,19.00
2023-01-23T08:23:52.652Z,19.60
2023-01-23T08:26:22.383Z,17.80
2023-01-23T08:29:44.887Z,16.80
2023-01-23T08:33:27.723Z,15.90
2023-01-23T08:35:01.902Z,13.80
2023-01-23T08:38:02.565Z,16.90
2023-01-23T08:40:33.670Z,14.50
2023-01-23T08:45:07.271Z,18.70
2023-01-23T08:50:41.583Z,17.00
2023-01-23T08:52:11.706Z,18.60
2023-01-23T08:53:41.770Z,15.10
2023-01-23T08:56:41.966Z,21.80
2023-01-23T08:59:43.003Z,16.60
2023-01-23T09:04:15.844Z,17.50
2023-01-23T09:08:46.934Z,18.90
2023-01-23T09:12:51.120Z,14.20
2023-01-23T09:14:49.027Z,15.70
2023-01-23T09:18:25.319Z,16.40
2023-01-23T09:22:37.912Z,17.80
2023-01-23T09:24:07.727Z,15.60
2023-01-23T09:29:14.710Z,15.50
2023-01-23T09:35:10.455Z,14.90
2023-01-23T09:36:43.380Z,18.10
2023-01-23T09:39:09.635Z,13.40
2023-01-23T09:42:08.537Z,18.10
2023-01-23T09:45:22.414Z,14.90
2023-01-23T09:52:52.140Z,17.20
2023-01-23T09:54:22.339Z,19.80
2023-01-23T09:58:23.916Z,21.80
2023-01-23T10:00:00.104Z,20.20
2023-01-23T10:03:58.699Z,18.50
2023-01-23T10:05:28.317Z,20.20
2023-01-23T10:06:58.753Z,16.70
2023-01-23T10:11:31.215Z,20.80
2023-01-23T10:14:29.562Z,16.70
2023-01-23T10:19:27.816Z,16.70
2023-01-23T10:22:28.232Z,19.80
2023-01-23T10:32:38.619Z,12.40
2023-01-23T10:34:08.208Z,14.70
2023-01-23T10:35:08.145Z,14.20
2023-01-23T10:36:08.147Z,15.40
2023-01-23T10:37:39.989Z,13.50
2023-01-23T10:40:09.631Z,15.40
2023-01-23T10:42:42.383Z,15.30
2023-01-23T10:44:42.304Z,15.90
2023-01-23T10:46:41.210Z,13.50
2023-01-23T10:48:47.096Z,13.50
2023-01-23T10:50:17.702Z,13.40
2023-01-23T10:52:48.212Z,12.90
2023-01-23T10:55:20.787Z,15.90
2023-01-23T10:56:50.067Z,16.20
2023-01-23T10:58:49.924Z,16.40
2023-01-23T11:00:19.874Z,15.40
2023-01-23T11:02:23.693Z,19.20
2023-01-23T11:07:24.144Z,16.10
2023-01-23T11:09:58.244Z,13.00
2023-01-23T11:12:26.436Z,13.60
2023-01-23T11:16:29.743Z,14.40
2023-01-23T11:18:00.192Z,13.50
2023-01-23T11:20:00.651Z,13.00
2023-01-23T11:23:33.645Z,15.40
2023-01-23T11:25:44.043Z,13.90
2023-01-23T11:31:42.783Z,12.60
2023-01-23T11:37:18.209Z,16.20
2023-01-23T11:46:43.640Z,12.90
2023-01-23T11:53:16.768Z,15.50
2023-01-23T11:54:45.947Z,15.80
2023-01-23T11:56:59.483Z,18.00
2023-01-23T11:59:30.505Z,17.80
2023-01-23T12:01:00.740Z,17.20
2023-01-23T12:03:04.071Z,14.20
2023-01-23T12:07:07.114Z,15.00
2023-01-23T12:10:08.334Z,14.60
2023-01-23T12:13:09.262Z,14.20
2023-01-23T12:15:39.053Z,14.70
2023-01-23T12:17:08.905Z,16.20
2023-01-23T12:18:40.412Z,13.90
2023-01-23T12:20:09.098Z,14.10
2023-01-23T12:22:10.885Z,13.20
2023-01-23T12:26:24.180Z,16.10
2023-01-23T12:28:26.087Z,12.70
2023-01-23T12:29:56.275Z,12.90
2023-01-23T12:32:59.712Z,12.90
2023-01-23T12:36:00.330Z,16.50
2023-01-23T12:43:07.540Z,14.20
2023-01-23T12:44:39.662Z,12.20
2023-01-23T12:47:12.563Z,12.70
2023-01-23T12:50:15.503Z,13.00
2023-01-23T12:51:46.105Z,12.70
2023-01-23T12:53:46.667Z,12.50
2023-01-23T12:55:17.521Z,13.60
2023-01-23T12:56:46.748Z,14.00
2023-01-23T13:00:01.737Z,11.70
2023-01-23T13:02:01.407Z,12.90
2023-01-23T13:05:06.000Z,11.00
2023-01-23T13:06:35.054Z,13.30
2023-01-23T13:09:17.859Z,13.00
2023-01-23T13:10:39.852Z,12.50
2023-01-23T13:12:09.998Z,11.80
2023-01-23T13:14:22.795Z,13.10
2023-01-23T13:17:22.100Z,13.00
2023-01-23T13:20:23.127Z,16.00
2023-01-23T13:21:53.388Z,13.40
2023-01-23T13:23:23.402Z,11.50
2023-01-23T13:25:57.676Z,14.50
2023-01-23T13:28:35.470Z,11.80
2023-01-23T13:32:02.049Z,11.20
2023-01-23T13:36:38.816Z,12.00
2023-01-23T13:38:08.947Z,13.70
2023-01-23T13:41:10.783Z,10.60
2023-01-23T13:45:13.895Z,12.10
2023-01-23T13:49:48.512Z,11.90
2023-01-23T13:57:29.723Z,17.50
2023-01-23T14:01:10.921Z,13.00
2023-01-23T14:04:13.586Z,12.40
2023-01-23T14:08:12.451Z,12.60
2023-01-23T14:13:15.305Z,12.10
2023-01-23T14:17:17.997Z,13.60
2023-01-23T14:20:30.193Z,13.50
2023-01-23T14:22:31.335Z,12.70
2023-01-23T14:24:31.752Z,13.50
2023-01-23T14:26:05.130Z,12.50
2023-01-23T14:30:08.864Z,12.40
2023-01-23T14:33:07.831Z,13.80
2023-01-23T14:35:09.093Z,12.60
2023-01-23T14:40:12.498Z,13.10
2023-01-23T14:41:41.823Z,12.90
2023-01-23T14:44:12.090Z,16.00
2023-01-23T14:46:12.908Z,14.40
2023-01-23T14:48:12.539Z,14.20
2023-01-23T14:49:43.173Z,12.70
2023-01-23T14:56:15.950Z,12.70
2023-01-23T14:58:47.489Z,11.60
2023-01-23T15:00:18.120Z,15.10
2023-01-23T15:04:21.013Z,12.90
2023-01-23T15:05:51.479Z,13.20
2023-01-23T15:07:51.625Z,14.80
2023-01-23T15:09:51.408Z,14.20
2023-01-23T15:19:27.521Z,13.00
2023-01-23T15:22:28.072Z,14.80
2023-01-23T15:27:33.182Z,15.30
2023-01-23T15:29:33.634Z,15.90
2023-01-23T15:31:03.796Z,13.60
2023-01-23T15:32:35.057Z,13.90
2023-01-23T15:34:03.902Z,14.70
2023-01-23T15:36:05.056Z,16.80
2023-01-23T15:37:34.556Z,16.30
2023-01-23T15:40:19.116Z,14.40
2023-01-23T15:43:55.379Z,16.30
2023-01-23T15:47:56.236Z,14.70
2023-01-23T15:51:29.233Z,19.20
2023-01-23T15:53:30.436Z,18.60
2023-01-23T16:02:55.126Z,15.10
2023-01-23T16:04:12.771Z,18.40
2023-01-23T16:06:13.195Z,15.50
2023-01-23T16:07:44.121Z,15.90
2023-01-23T16:09:47.448Z,21.90
2023-01-23T16:11:17.346Z,17.50
2023-01-23T16:14:49.238Z,18.20
2023-01-23T16:17:49.456Z,17.70
2023-01-23T16:19:19.559Z,21.10
2023-01-23T16:21:19.969Z,17.70
2023-01-23T16:23:19.593Z,19.00
2023-01-23T16:24:49.702Z,18.10
2023-01-23T16:26:51.283Z,22.00
2023-01-23T16:29:21.455Z,26.00
2023-01-23T16:33:56.148Z,22.50
2023-01-23T16:36:57.174Z,16.00
2023-01-23T16:38:28.096Z,19.20
2023-01-23T16:40:58.815Z,19.20
2023-01-23T16:45:42.253Z,15.80
2023-01-23T16:48:43.287Z,16.50
2023-01-23T16:51:14.036Z,16.40
2023-01-23T16:53:13.658Z,15.50
2023-01-23T16:55:14.066Z,15.10
2023-01-23T16:59:48.495Z,17.20
2023-01-23T17:03:19.432Z,18.20
2023-01-23T17:13:53.601Z,20.20
2023-01-23T17:17:56.584Z,15.70
2023-01-23T17:25:29.400Z,18.90
2023-01-23T17:28:12.482Z,15.40
2023-01-23T17:31:02.836Z,16.40
2023-01-23T17:38:06.408Z,17.00
2023-01-23T17:39:36.557Z,14.30
2023-01-23T17:41:18.047Z,15.60
2023-01-23T17:42:48.168Z,16.30
2023-01-23T17:43:48.121Z,18.20
2023-01-23T17:44:48.181Z,15.50
2023-01-23T17:45:48.127Z,17.90
2023-01-23T17:49:22.578Z,16.50
2023-01-23T17:52:56.202Z,18.10
2023-01-23T17:54:55.610Z,17.30
2023-01-23T18:00:56.912Z,16.20
2023-01-23T18:04:57.453Z,15.20
2023-01-23T18:06:25.872Z,16.80
2023-01-23T18:08:55.302Z,17.10
2023-01-23T18:11:25.514Z,16.20
2023-01-23T18:13:56.297Z,16.40
2023-01-23T18:19:27.703Z,16.30
2023-01-23T18:23:57.245Z,16.20
2023-01-23T18:25:27.364Z,16.50
2023-01-23T18:30:27.672Z,15.70
2023-01-23T18:32:27.214Z,18.30
2023-01-23T18:34:26.726Z,16.10
2023-01-23T18:37:56.053Z,16.60
2023-01-23T18:43:23.137Z,17.40
2023-01-23T18:45:27.222Z,19.50
2023-01-23T18:47:23.575Z,17.60
2023-01-23T18:57:58.130Z,16.70
2023-01-23T19:07:24.425Z,17.50
2023-01-23T19:08:51.612Z,17.50
2023-01-23T19:11:23.913Z,15.50
2023-01-23T19:13:54.676Z,17.50
2023-01-23T19:15:55.102Z,18.70
2023-01-23T19:18:39.196Z,16.50
2023-01-23T19:20:57.049Z,15.00
2023-01-23T19:24:28.725Z,16.30
2023-01-23T19:27:29.236Z,18.50
2023-01-23T19:29:28.722Z,14.50
2023-01-23T19:32:05.085Z,15.20
2023-01-23T19:33:28.625Z,15.40
2023-01-23T19:36:58.028Z,14.30
2023-01-23T19:38:27.747Z,15.60
2023-01-23T19:39:58.075Z,16.20
2023-01-23T19:43:13.683Z,15.60
2023-01-23T19:44:30.658Z,15.30
2023-01-23T19:47:30.259Z,18.60
2023-01-23T19:50:10.668Z,16.40
2023-01-23T19:51:40.493Z,17.40
2023-01-23T19:55:38.143Z,17.00
2023-01-23T19:58:37.812Z,16.80
2023-01-23T19:59:37.892Z,17.60
2023-01-23T20:00:37.779Z,20.30
2023-01-23T20:03:41.471Z,16.30
2023-01-23T20:05:41.887Z,14.80
2023-01-23T20:09:13.261Z,16.80
2023-01-23T20:13:48.554Z,18.20
2023-01-23T20:16:21.747Z,14.50
2023-01-23T20:17:51.789Z,17.90
2023-01-23T20:19:21.898Z,20.40
2023-01-23T20:21:54.283Z,17.00
2023-01-23T20:24:24.143Z,17.90
2023-01-23T20:29:53.951Z,19.40
2023-01-23T20:33:52.691Z,20.00
2023-01-23T20:36:54.112Z,16.00
2023-01-23T20:41:32.574Z,22.30
2023-01-23T20:46:35.684Z,19.00
2023-01-23T20:51:37.257Z,17.80
2023-01-23T20:53:06.996Z,18.70
2023-01-23T20:55:08.214Z,20.10
2023-01-23T20:56:42.634Z,17.00
2023-01-23T20:59:13.903Z,21.00
2023-01-23T21:00:44.167Z,24.70
2023-01-23T21:09:47.481Z,19.50
2023-01-23T21:12:20.346Z,20.20
2023-01-23T21:16:20.408Z,18.80
2023-01-23T21:18:19.982Z,19.30
2023-01-23T21:23:25.631Z,21.30
2023-01-23T21:24:55.672Z,21.40
2023-01-23T21:26:57.335Z,21.30
2023-01-23T21:28:57.448Z,19.40
2023-01-23T21:30:57.845Z,17.80
2023-01-23T21:33:31.885Z,19.60
2023-01-23T21:35:01.518Z,19.60
2023-01-23T21:36:32.015Z,18.50
2023-01-23T21:39:36.349Z,21.20
2023-01-23T21:42:37.425Z,20.30
2023-01-23T21:43:35.690Z,22.00
2023-01-23T21:44:35.976Z,20.00
2023-01-23T21:46:05.467Z,18.00
2023-01-23T21:47:35.546Z,18.10
2023-01-23T21:50:39.869Z,21.90
2023-01-23T21:52:09.164Z,18.20
2023-01-23T21:58:43.227Z,19.90
2023-01-23T22:00:15.954Z,19.30
2023-01-23T22:02:47.052Z,23.30
2023-01-23T22:04:47.825Z,20.90
2023-01-23T22:07:20.268Z,20.10
2023-01-23T22:08:50.551Z,18.40
2023-01-23T22:10:50.825Z,17.70
2023-01-23T22:13:19.873Z,17.30
2023-01-23T22:15:19.843Z,17.10
2023-01-23T22:23:22.687Z,22.10
2023-01-23T22:24:52.416Z,18.50
2023-01-23T22:26:22.132Z,18.40
2023-01-23T22:27:51.868Z,16.50
2023-01-23T22:29:51.361Z,21.10
2023-01-23T22:33:22.510Z,22.20
2023-01-23T22:34:51.729Z,19.50
2023-01-23T22:39:24.313Z,19.10
2023-01-23T22:40:54.984Z,17.90
2023-01-23T22:43:26.407Z,19.10
2023-01-23T22:45:56.422Z,22.00
2023-01-23T22:52:00.022Z,19.90
2023-01-23T22:53:29.757Z,18.40
2023-01-23T22:55:58.979Z,15.90
2023-01-23T22:57:28.772Z,18.30
2023-01-23T22:58:28.704Z,18.90
2023-01-23T22:59:28.723Z,19.90
2023-01-23T23:00:58.512Z,16.90
2023-01-23T23:02:28.158Z,16.80
2023-01-23T23:03:57.945Z,19.50
2023-01-23T23:06:30.967Z,17.80
2023-01-23T23:07:59.737Z,19.90
2023-01-23T23:10:30.417Z,16.70
2023-01-23T23:11:59.291Z,17.80
2023-01-23T23:13:59.304Z,20.00
2023-01-23T23:15:29.594Z,20.70
2023-01-23T23:16:29.559Z,19.60
2023-01-23T23:17:29.586Z,21.20
2023-01-23T23:19:00.092Z,18.10
2023-01-23T23:22:04.401Z,18.90
2023-01-23T23:23:37.317Z,19.60
2023-01-23T23:25:06.300Z,20.70
2023-01-23T23:27:05.891Z,20.40
2023-01-23T23:31:13.292Z,21.00
2023-01-23T23:32:46.027Z,18.00
2023-01-23T23:37:47.308Z,17.50
2023-01-23T23:39:18.357Z,19.80
2023-01-23T23:42:20.910Z,18.00
2023-01-23T23:44:52.484Z,18.80
2023-01-23T23:47:55.125Z,17.60
2023-01-23T23:49:26.912Z,19.90
2023-01-23T23:51:30.617Z,18.10
2023-01-23T23:53:01.561Z,18.90
2023-01-23T23:54:01.508Z,20.30
2023-01-23T23:55:01.499Z,17.50
2023-01-23T23:56:01.477Z,20.20
2023-01-23T23:59:03.636Z,19.70
